Time;durP1;ratioP1;P1;durP2;ratioP2;P2;SDS_P1;SDS_P2;PMS_P1;PMS_P2;Temp;Humidity;BMP_temperature;BMP_pressure;BME280_temperature;BME280_humidity;BME280_pressure;Samples;Min_cycle;Max_cycle;Signal;HPM_P1;HPM_P2
2023/07/16 00:00:10;;;;;;;1.85;1.05;;;18.50;99.90;;;;;;5007198;28;20033;-64
2023/07/16 00:02:38;;;;;;;2.15;1.42;;;18.60;99.90;;;;;;5009703;28;20076;-64
2023/07/16 00:05:04;;;;;;;3.60;1.67;;;18.60;99.90;;;;;;5007993;28;20022;-64
2023/07/16 00:07:30;;;;;;;2.30;1.30;;;18.60;99.90;;;;;;5009244;28;20677;-65
2023/07/16 00:09:55;;;;;;;2.28;1.63;;;18.60;99.90;;;;;;5008944;28;20025;-61
2023/07/16 00:12:21;;;;;;;1.95;1.30;;;18.60;99.90;;;;;;4986652;28;20025;-63
2023/07/16 00:14:47;;;;;;;4.25;2.10;;;18.50;99.90;;;;;;5008762;28;20427;-62
2023/07/16 00:17:13;;;;;;;2.78;1.38;;;18.50;99.90;;;;;;5002764;28;20030;-63
2023/07/16 00:19:38;;;;;;;2.92;1.60;;;18.40;99.90;;;;;;5006204;28;20014;-65
2023/07/16 00:22:04;;;;;;;4.00;1.42;;;18.40;99.90;;;;;;5008663;28;20461;-64
2023/07/16 00:24:30;;;;;;;2.38;1.70;;;18.40;99.90;;;;;;4987514;28;20029;-63
2023/07/16 00:26:55;;;;;;;3.25;1.58;;;18.40;99.90;;;;;;5007613;28;20022;-64
2023/07/16 00:29:21;;;;;;;2.33;1.27;;;18.40;99.90;;;;;;5008526;28;20427;-65
2023/07/16 00:31:46;;;;;;;2.13;1.60;;;18.40;99.90;;;;;;5006178;28;20440;-63
2023/07/16 00:34:13;;;;;;;3.33;1.73;;;18.30;99.90;;;;;;5003287;28;20022;-62
2023/07/16 00:36:38;;;;;;;1.98;1.50;;;18.30;99.90;;;;;;5004724;28;20468;-62
2023/07/16 00:39:05;;;;;;;4.78;1.65;;;18.30;99.90;;;;;;5013426;28;20032;-63
2023/07/16 00:41:30;;;;;;;2.50;1.60;;;18.30;99.90;;;;;;5010833;28;20105;-62
2023/07/16 00:43:56;;;;;;;5.50;1.88;;;18.30;99.90;;;;;;5013530;28;20101;-64
2023/07/16 00:46:22;;;;;;;3.83;2.28;;;18.30;99.90;;;;;;5018189;28;20079;-64
2023/07/16 00:48:47;;;;;;;4.25;2.15;;;18.30;99.90;;;;;;5026774;28;20022;-64
2023/07/16 00:51:14;;;;;;;2.03;1.83;;;18.30;99.90;;;;;;5022354;28;20106;-63
2023/07/16 00:53:41;;;;;;;4.10;1.60;;;18.30;99.90;;;;;;5016039;28;20083;-62
2023/07/16 00:56:08;;;;;;;3.10;1.88;;;18.30;99.90;;;;;;5015967;28;20380;-64
2023/07/16 00:58:34;;;;;;;1.85;1.73;;;18.30;99.90;;;;;;5016538;28;20033;-65
2023/07/16 01:01:00;;;;;;;4.68;2.13;;;18.30;99.90;;;;;;4991761;28;20045;-64
2023/07/16 01:03:26;;;;;;;4.75;1.70;;;18.30;99.90;;;;;;4998036;28;20439;-64
2023/07/16 01:06:04;;;;;;;3.58;1.80;;;18.30;99.90;;;;;;5011246;28;20068;-63
2023/07/16 01:08:29;;;;;;;2.97;2.45;;;18.30;99.90;;;;;;5010892;28;20064;-63
2023/07/16 01:10:55;;;;;;;3.15;2.38;;;18.30;99.90;;;;;;5022286;28;20025;-64
2023/07/16 01:13:21;;;;;;;4.00;1.80;;;18.30;99.90;;;;;;5014180;28;20036;-63
2023/07/16 01:15:46;;;;;;;2.55;1.90;;;18.30;99.90;;;;;;5020301;28;20022;-63
2023/07/16 01:18:12;;;;;;;5.65;2.10;;;18.30;99.90;;;;;;5011501;28;20469;-63
2023/07/16 01:20:38;;;;;;;3.15;1.67;;;18.30;99.90;;;;;;5018367;28;20151;-64
2023/07/16 01:23:26;;;;;;;3.75;1.85;;;18.30;99.90;;;;;;5022349;28;20512;-61
2023/07/16 01:26:10;;;;;;;3.58;1.80;;;18.30;99.90;;;;;;5011312;28;20101;-63
2023/07/16 01:29:05;;;;;;;3.00;1.38;;;18.30;99.90;;;;;;5022255;28;20521;-62
2023/07/16 01:31:33;;;;;;;2.45;1.50;;;18.30;99.90;;;;;;5012250;28;20030;-64
2023/07/16 01:33:59;;;;;;;2.50;2.03;;;18.30;99.90;;;;;;5020492;28;20036;-62
2023/07/16 01:36:28;;;;;;;1.45;1.35;;;18.30;99.90;;;;;;5011410;28;20018;-64
2023/07/16 01:38:53;;;;;;;3.47;1.90;;;18.30;99.90;;;;;;5018358;28;20104;-63
2023/07/16 01:41:19;;;;;;;2.65;1.85;;;18.30;99.90;;;;;;5016043;28;20105;-65
2023/07/16 01:43:44;;;;;;;2.85;1.80;;;18.30;99.90;;;;;;5015141;28;20015;-64
2023/07/16 01:46:11;;;;;;;1.58;1.38;;;18.30;99.90;;;;;;5021454;28;20022;-62
2023/07/16 01:48:37;;;;;;;1.88;1.50;;;18.30;99.90;;;;;;5012184;28;20026;-62
2023/07/16 01:51:03;;;;;;;2.85;1.88;;;18.30;99.90;;;;;;5016446;28;20106;-61
2023/07/16 01:53:31;;;;;;;2.63;1.58;;;18.30;99.90;;;;;;5008296;28;20026;-63
2023/07/16 01:55:57;;;;;;;2.20;1.23;;;18.30;99.90;;;;;;5016787;28;20017;-61
2023/07/16 01:58:22;;;;;;;1.45;1.20;;;18.30;99.90;;;;;;4995433;28;20109;-61
2023/07/16 02:00:50;;;;;;;3.05;1.92;;;18.20;99.90;;;;;;5043230;23;20451;-62
2023/07/16 02:03:15;;;;;;;5.10;2.33;;;18.30;99.90;;;;;;5015769;28;20034;-64
2023/07/16 02:05:41;;;;;;;2.88;1.73;;;18.20;99.90;;;;;;5005026;28;20026;-63
2023/07/16 02:08:06;;;;;;;2.10;1.75;;;18.20;99.90;;;;;;5020750;28;20041;-62
2023/07/16 02:10:32;;;;;;;1.52;1.42;;;18.20;99.90;;;;;;4996636;28;20029;-63
2023/07/16 02:12:58;;;;;;;3.42;2.05;;;18.10;99.90;;;;;;5007012;28;20030;-62
2023/07/16 02:15:23;;;;;;;1.70;1.60;;;18.10;99.90;;;;;;5008899;28;20510;-63
2023/07/16 02:17:50;;;;;;;1.60;1.50;;;18.00;99.90;;;;;;4982272;28;20389;-63
2023/07/16 02:20:15;;;;;;;3.30;1.63;;;18.00;99.90;;;;;;5009183;28;20105;-63
2023/07/16 02:22:41;;;;;;;3.80;1.60;;;18.00;99.90;;;;;;5003254;28;20109;-63
2023/07/16 02:25:07;;;;;;;4.40;1.65;;;17.90;99.90;;;;;;5008156;28;20484;-62
2023/07/16 02:27:32;;;;;;;2.28;1.58;;;17.90;99.90;;;;;;5009633;28;20030;-63
2023/07/16 02:29:58;;;;;;;2.80;1.42;;;17.90;99.90;;;;;;5005900;28;20029;-63
2023/07/16 02:32:24;;;;;;;1.55;1.35;;;17.90;99.90;;;;;;5010226;28;20524;-63
2023/07/16 02:34:49;;;;;;;2.17;1.58;;;17.90;99.90;;;;;;5005937;28;20400;-63
2023/07/16 02:37:15;;;;;;;2.70;1.90;;;17.90;99.90;;;;;;5010985;28;20030;-63
2023/07/16 02:39:44;;;;;;;3.13;1.85;;;17.80;99.90;;;;;;5002649;28;20026;-63
2023/07/16 02:42:10;;;;;;;3.88;1.63;;;17.80;99.90;;;;;;4992102;28;20026;-63
2023/07/16 02:44:41;;;;;;;15.88;2.13;;;17.80;99.90;;;;;;5000761;28;20444;-62
2023/07/16 02:47:07;;;;;;;2.13;1.40;;;17.80;99.90;;;;;;5007265;28;20025;-62
2023/07/16 02:49:33;;;;;;;2.20;1.60;;;17.70;99.90;;;;;;5009539;28;20186;-63
2023/07/16 02:51:58;;;;;;;1.70;1.60;;;17.70;99.90;;;;;;5004737;28;20031;-63
2023/07/16 02:54:24;;;;;;;4.65;2.00;;;17.70;99.90;;;;;;5010050;28;20018;-61
2023/07/16 02:56:49;;;;;;;2.15;1.58;;;17.60;99.90;;;;;;5005019;28;20022;-61
2023/07/16 02:59:15;;;;;;;3.25;1.75;;;17.60;99.90;;;;;;5005748;28;20105;-62
2023/07/16 03:01:40;;;;;;;2.65;2.08;;;17.60;99.90;;;;;;5002693;28;20042;-63
2023/07/16 03:04:06;;;;;;;3.03;1.83;;;17.60;99.90;;;;;;4986942;28;20053;-62
2023/07/16 03:06:32;;;;;;;3.00;1.83;;;17.60;99.90;;;;;;5006025;28;20022;-61
2023/07/16 03:08:57;;;;;;;3.50;1.90;;;17.60;99.90;;;;;;5010053;28;20069;-63
2023/07/16 03:11:23;;;;;;;5.38;2.20;;;17.60;99.90;;;;;;5006340;28;20034;-62
2023/07/16 03:13:48;;;;;;;7.05;2.20;;;17.60;99.90;;;;;;5008828;28;20121;-62
2023/07/16 03:16:14;;;;;;;2.00;1.50;;;17.60;99.90;;;;;;5006974;28;20376;-61
2023/07/16 03:18:40;;;;;;;2.50;1.90;;;17.60;99.90;;;;;;5007194;28;20029;-60
2023/07/16 03:21:06;;;;;;;6.40;1.95;;;17.60;99.90;;;;;;4990258;28;20029;-62
2023/07/16 03:23:31;;;;;;;3.25;1.83;;;17.50;99.90;;;;;;5006839;28;20018;-61
2023/07/16 03:25:56;;;;;;;4.35;1.60;;;17.50;99.90;;;;;;4989669;28;20399;-61
2023/07/16 03:28:22;;;;;;;4.20;2.00;;;17.50;99.90;;;;;;5005463;28;20121;-60
2023/07/16 03:30:49;;;;;;;3.45;1.50;;;17.50;99.90;;;;;;5003518;28;20036;-61
2023/07/16 03:33:14;;;;;;;1.60;1.50;;;17.50;99.90;;;;;;5000347;28;20054;-60
2023/07/16 03:35:43;;;;;;;4.35;1.92;;;17.50;99.90;;;;;;5005944;28;20060;-61
2023/07/16 03:38:10;;;;;;;2.08;1.63;;;17.40;99.90;;;;;;5003258;28;20096;-61
2023/07/16 03:40:35;;;;;;;3.13;1.83;;;17.40;99.90;;;;;;5004759;28;20022;-61
2023/07/16 03:43:01;;;;;;;3.78;2.08;;;17.40;99.90;;;;;;5002424;28;20029;-61
2023/07/16 03:45:26;;;;;;;3.72;1.75;;;17.40;99.90;;;;;;5004949;28;20622;-62
2023/07/16 03:47:52;;;;;;;3.33;2.50;;;17.40;99.90;;;;;;5002305;28;20480;-63
2023/07/16 03:50:17;;;;;;;4.63;3.50;;;17.40;99.90;;;;;;5004191;28;20492;-61
2023/07/16 03:52:44;;;;;;;3.38;2.08;;;17.40;99.90;;;;;;5000910;28;20081;-61
2023/07/16 03:55:09;;;;;;;4.07;2.15;;;17.40;99.90;;;;;;5004331;28;20068;-61
2023/07/16 03:57:35;;;;;;;2.42;1.58;;;17.40;99.90;;;;;;5001536;28;20026;-59
2023/07/16 04:00:08;;;;;;;4.55;2.33;;;17.40;99.90;;;;;;5004104;28;20100;-62
2023/07/16 04:02:33;;;;;;;2.78;1.90;;;17.30;99.90;;;;;;5000742;28;20054;-61
2023/07/16 04:04:59;;;;;;;2.45;2.22;;;17.40;99.90;;;;;;5002750;28;20030;-61
2023/07/16 04:07:24;;;;;;;3.10;1.70;;;17.40;99.90;;;;;;5001306;28;20089;-60
2023/07/16 04:09:51;;;;;;;5.47;2.22;;;17.40;99.90;;;;;;5006395;28;20045;-62
2023/07/16 04:12:17;;;;;;;3.88;1.92;;;17.40;99.90;;;;;;5000960;28;20452;-62
2023/07/16 04:14:42;;;;;;;2.72;1.98;;;17.40;99.90;;;;;;5006372;28;20097;-62
2023/07/16 04:17:08;;;;;;;2.22;1.63;;;17.50;99.90;;;;;;4999873;28;20033;-62
2023/07/16 04:19:34;;;;;;;2.45;1.60;;;17.50;99.90;;;;;;5005886;28;20527;-61
2023/07/16 04:22:02;;;;;;;6.40;2.08;;;17.40;99.90;;;;;;5000662;28;20091;-61
2023/07/16 04:24:28;;;;;;;3.33;2.03;;;17.50;99.90;;;;;;5004097;28;20030;-60
2023/07/16 04:26:54;;;;;;;2.95;2.20;;;17.40;99.90;;;;;;5006736;28;20122;-60
2023/07/16 04:29:19;;;;;;;3.53;2.13;;;17.40;99.90;;;;;;5004175;28;20069;-60
2023/07/16 04:31:45;;;;;;;2.30;1.98;;;17.50;99.90;;;;;;4986956;28;20034;-60
2023/07/16 04:34:11;;;;;;;3.80;2.10;;;17.50;99.90;;;;;;5003241;28;20049;-62
2023/07/16 04:36:38;;;;;;;2.72;2.33;;;17.50;99.90;;;;;;5003754;28;20025;-61
2023/07/16 04:39:04;;;;;;;3.55;2.03;;;17.50;99.90;;;;;;5002491;28;20121;-60
2023/07/16 04:41:30;;;;;;;2.60;2.15;;;17.60;99.90;;;;;;5003209;28;20492;-59
2023/07/16 04:43:55;;;;;;;5.47;2.00;;;17.60;99.90;;;;;;5007088;28;20045;-63
2023/07/16 04:46:21;;;;;;;5.57;2.38;;;17.60;99.90;;;;;;4990463;28;20029;-62
2023/07/16 04:48:46;;;;;;;4.53;2.08;;;17.70;99.90;;;;;;5006127;28;20519;-58
2023/07/16 04:51:12;;;;;;;3.63;2.35;;;17.80;99.90;;;;;;5000573;28;20030;-62
2023/07/16 04:53:37;;;;;;;3.65;2.38;;;17.90;99.90;;;;;;4994145;28;20053;-61
2023/07/16 04:56:03;;;;;;;4.55;1.90;;;18.00;99.90;;;;;;4996992;28;20140;-62
2023/07/16 04:58:29;;;;;;;3.55;2.15;;;18.00;99.90;;;;;;4978408;28;20022;-61
2023/07/16 05:00:54;;;;;;;3.47;1.95;;;18.10;99.90;;;;;;4996800;28;20035;-61
2023/07/16 05:03:20;;;;;;;3.28;2.13;;;18.10;99.90;;;;;;4997113;28;20105;-61
2023/07/16 05:05:45;;;;;;;4.22;1.90;;;18.10;99.90;;;;;;5000316;28;20037;-60
2023/07/16 05:08:11;;;;;;;3.00;2.15;;;18.10;99.90;;;;;;5003253;28;20029;-61
2023/07/16 05:10:36;;;;;;;5.43;2.45;;;18.10;99.90;;;;;;4999120;28;20053;-61
2023/07/16 05:13:03;;;;;;;2.28;1.88;;;18.10;99.90;;;;;;5003792;28;20453;-61
2023/07/16 05:15:29;;;;;;;3.70;2.30;;;18.10;99.90;;;;;;5005206;28;20025;-61
2023/07/16 05:17:57;;;;;;;3.38;1.92;;;18.10;99.90;;;;;;4999957;28;20501;-61
2023/07/16 05:20:23;;;;;;;3.42;2.25;;;18.20;99.90;;;;;;5000013;28;20041;-61
2023/07/16 05:22:48;;;;;;;2.58;1.70;;;18.20;99.90;;;;;;4994379;28;20025;-60
2023/07/16 05:25:14;;;;;;;4.78;1.95;;;18.30;99.90;;;;;;5001865;28;20090;-59
2023/07/16 05:27:40;;;;;;;3.15;2.00;;;18.30;99.90;;;;;;5010001;28;20030;-60
2023/07/16 05:30:06;;;;;;;1.95;1.42;;;18.30;99.90;;;;;;4990001;28;20044;-61
2023/07/16 05:32:31;;;;;;;4.55;2.20;;;18.40;99.90;;;;;;5009130;28;20030;-59
2023/07/16 05:34:57;;;;;;;4.55;2.03;;;18.40;99.90;;;;;;5004752;28;20519;-59
2023/07/16 05:37:22;;;;;;;3.75;2.17;;;18.50;99.90;;;;;;5001606;28;20026;-59
2023/07/16 05:39:48;;;;;;;4.28;2.03;;;18.50;99.90;;;;;;5005669;28;20015;-59
2023/07/16 05:42:14;;;;;;;4.07;2.00;;;18.50;99.90;;;;;;5005514;28;20093;-61
2023/07/16 05:44:39;;;;;;;5.38;2.10;;;18.50;99.90;;;;;;5001140;28;20349;-60
2023/07/16 05:47:05;;;;;;;3.80;1.88;;;18.50;99.90;;;;;;5007868;28;20068;-60
2023/07/16 05:49:31;;;;;;;5.00;2.42;;;18.50;99.90;;;;;;5002735;28;20492;-60
2023/07/16 05:51:57;;;;;;;8.57;2.35;;;18.50;99.90;;;;;;5000055;28;20642;-59
2023/07/16 05:54:23;;;;;;;7.30;2.00;;;18.60;99.90;;;;;;4999899;28;20033;-62
2023/07/16 05:56:49;;;;;;;5.43;1.80;;;18.60;99.90;;;;;;5002687;28;20022;-61
2023/07/16 05:59:14;;;;;;;4.18;1.70;;;18.70;99.90;;;;;;5004900;28;20783;-59
2023/07/16 06:01:40;;;;;;;2.70;1.50;;;18.80;99.90;;;;;;4997779;28;20507;-60
2023/07/16 06:04:05;;;;;;;3.35;1.55;;;18.80;99.90;;;;;;5005513;28;20492;-60
2023/07/16 06:06:31;;;;;;;2.67;1.55;;;18.90;99.90;;;;;;5007650;28;20022;-62
2023/07/16 06:08:56;;;;;;;3.78;1.90;;;19.00;99.90;;;;;;5005407;28;20021;-61
2023/07/16 06:11:22;;;;;;;2.35;1.80;;;19.10;99.90;;;;;;5006140;28;20367;-60
2023/07/16 06:13:47;;;;;;;3.80;1.90;;;19.10;99.90;;;;;;5005394;28;20082;-62
2023/07/16 06:16:13;;;;;;;4.43;1.40;;;19.20;99.90;;;;;;5005071;28;20057;-61
2023/07/16 06:18:39;;;;;;;2.90;1.50;;;19.30;99.90;;;;;;5004651;28;20023;-61
2023/07/16 06:21:04;;;;;;;7.15;3.72;;;19.40;99.90;;;;;;5005100;28;20026;-61
2023/07/16 06:23:30;;;;;;;4.80;1.95;;;19.40;99.90;;;;;;4999941;28;20022;-60
2023/07/16 06:25:56;;;;;;;4.60;1.88;;;19.50;99.90;;;;;;4991740;28;20049;-62
2023/07/16 06:28:22;;;;;;;4.22;2.22;;;19.60;99.90;;;;;;4995307;28;20053;-61
2023/07/16 06:30:49;;;;;;;4.18;1.83;;;19.70;99.90;;;;;;5007922;28;20034;-61
2023/07/16 06:33:15;;;;;;;4.75;2.13;;;19.80;99.90;;;;;;4995756;28;20034;-59
2023/07/16 06:35:43;;;;;;;3.42;1.85;;;19.90;99.90;;;;;;4987917;28;20499;-62
2023/07/16 06:38:09;;;;;;;3.35;1.50;;;20.00;99.90;;;;;;5003631;28;20019;-63
2023/07/16 06:40:34;;;;;;;5.65;2.28;;;20.00;99.90;;;;;;5005499;28;20419;-61
2023/07/16 06:43:00;;;;;;;3.25;1.90;;;20.10;99.90;;;;;;4990979;28;20045;-62
2023/07/16 06:45:25;;;;;;;5.13;2.10;;;20.20;99.90;;;;;;4999360;28;20037;-62
2023/07/16 06:47:51;;;;;;;7.93;2.63;;;20.30;99.90;;;;;;4995670;28;20105;-62
2023/07/16 06:50:16;;;;;;;3.80;2.15;;;20.40;99.90;;;;;;4999629;28;20086;-61
2023/07/16 06:52:42;;;;;;;3.63;2.50;;;20.40;99.90;;;;;;5007562;28;20119;-62
2023/07/16 06:55:08;;;;;;;5.80;2.65;;;20.50;99.90;;;;;;4984291;28;20409;-61
2023/07/16 06:57:34;;;;;;;7.95;2.88;;;20.60;99.90;;;;;;5008403;28;20026;-61
2023/07/16 06:59:59;;;;;;;5.05;2.83;;;20.60;99.90;;;;;;5005293;28;20112;-61
2023/07/16 07:02:25;;;;;;;6.18;2.50;;;20.60;99.90;;;;;;4997067;28;20042;-60
2023/07/16 07:04:51;;;;;;;4.30;2.70;;;20.70;99.90;;;;;;5005795;28;20025;-62
2023/07/16 07:07:17;;;;;;;5.50;2.42;;;20.70;99.90;;;;;;5006764;28;20034;-61
2023/07/16 07:09:43;;;;;;;5.47;2.75;;;20.80;99.90;;;;;;5006301;28;20526;-58
2023/07/16 07:12:08;;;;;;;7.38;2.63;;;20.80;99.90;;;;;;5004940;28;20034;-61
2023/07/16 07:14:34;;;;;;;6.47;2.70;;;20.90;99.90;;;;;;5005073;28;20026;-57
2023/07/16 07:17:00;;;;;;;10.98;2.20;;;21.00;99.90;;;;;;5004586;28;20026;-60
2023/07/16 07:19:25;;;;;;;4.68;2.05;;;21.00;99.90;;;;;;4998124;28;20019;-62
2023/07/16 07:21:51;;;;;;;3.28;2.03;;;21.00;99.90;;;;;;5007936;28;20395;-63
2023/07/16 07:24:16;;;;;;;4.50;2.38;;;21.10;99.90;;;;;;5004847;28;20025;-61
2023/07/16 07:26:42;;;;;;;5.60;2.75;;;21.20;99.90;;;;;;5002482;28;20030;-59
2023/07/16 07:29:08;;;;;;;3.70;2.33;;;21.30;99.90;;;;;;5004833;28;20030;-59
2023/07/16 07:31:33;;;;;;;2.70;2.10;;;21.30;99.90;;;;;;5005304;28;20563;-58
2023/07/16 07:33:59;;;;;;;7.47;2.45;;;21.40;99.90;;;;;;5004020;28;20029;-63
2023/07/16 07:36:25;;;;;;;5.53;2.33;;;21.50;99.90;;;;;;5000170;28;20034;-60
2023/07/16 07:38:50;;;;;;;6.35;2.47;;;21.60;99.90;;;;;;5008574;28;20530;-59
2023/07/16 07:41:16;;;;;;;4.38;1.83;;;21.70;99.90;;;;;;5007593;28;20049;-61
2023/07/16 07:43:42;;;;;;;8.98;2.03;;;21.80;99.90;;;;;;5007300;28;20048;-64
2023/07/16 07:46:08;;;;;;;5.68;2.55;;;21.90;99.90;;;;;;5004456;28;20030;-61
2023/07/16 07:48:33;;;;;;;6.90;2.30;;;22.00;99.90;;;;;;5005823;28;20041;-61
2023/07/16 07:50:59;;;;;;;4.75;2.47;;;22.00;99.90;;;;;;4985933;28;20511;-61
2023/07/16 07:53:25;;;;;;;4.05;2.33;;;21.90;99.90;;;;;;4998010;28;20035;-59
2023/07/16 07:55:50;;;;;;;3.85;1.83;;;21.90;99.90;;;;;;5000907;28;20033;-62
2023/07/16 07:58:16;;;;;;;3.58;2.13;;;21.80;99.90;;;;;;5005681;28;20033;-62
2023/07/16 08:00:41;;;;;;;2.53;1.60;;;21.90;99.90;;;;;;4996443;28;20520;-57
2023/07/16 08:03:07;;;;;;;5.63;2.47;;;21.80;99.90;;;;;;5016224;23;20049;-59
2023/07/16 08:05:33;;;;;;;5.63;3.30;;;21.90;99.90;;;;;;5002061;28;20457;-56
2023/07/16 08:07:59;;;;;;;5.20;2.47;;;22.20;99.90;;;;;;5001663;28;20023;-59
2023/07/16 08:10:24;;;;;;;3.65;2.08;;;22.30;99.90;;;;;;4977674;28;20041;-56
2023/07/16 08:12:50;;;;;;;6.75;2.53;;;22.40;99.90;;;;;;4994585;28;20030;-58
2023/07/16 08:15:15;;;;;;;5.68;2.63;;;22.50;99.90;;;;;;4994290;28;20104;-59
2023/07/16 08:17:45;;;;;;;3.25;2.47;;;22.60;99.90;;;;;;5003797;28;20026;-59
2023/07/16 08:20:11;;;;;;;3.75;2.10;;;22.70;99.90;;;;;;5001932;28;20026;-58
2023/07/16 08:22:38;;;;;;;6.25;2.03;;;22.80;99.90;;;;;;5004103;28;20018;-58
2023/07/16 08:25:05;;;;;;;4.90;1.95;;;22.70;99.90;;;;;;4998202;28;20552;-58
2023/07/16 08:27:30;;;;;;;4.53;1.67;;;22.60;99.90;;;;;;4993147;28;20508;-55
2023/07/16 08:29:56;;;;;;;3.80;2.22;;;22.80;99.90;;;;;;4994071;28;20033;-57
2023/07/16 08:32:22;;;;;;;4.15;2.03;;;23.00;99.90;;;;;;5002855;28;20044;-59
2023/07/16 08:34:48;;;;;;;3.33;1.58;;;23.10;99.90;;;;;;5003451;28;20675;-55
2023/07/16 08:37:14;;;;;;;5.03;2.15;;;22.90;99.90;;;;;;5002602;28;20034;-55
2023/07/16 08:39:39;;;;;;;3.42;2.05;;;22.70;99.90;;;;;;5006269;28;20034;-58
2023/07/16 08:42:06;;;;;;;8.93;2.33;;;22.80;99.90;;;;;;4996989;28;20038;-62
2023/07/16 08:44:32;;;;;;;3.78;2.00;;;22.50;99.90;;;;;;4992761;28;20030;-53
2023/07/16 08:46:58;;;;;;;2.72;2.13;;;22.50;99.90;;;;;;4973219;28;20110;-59
2023/07/16 08:49:29;;;;;;;5.35;2.03;;;22.60;99.90;;;;;;4986866;28;20127;-56
2023/07/16 08:51:56;;;;;;;5.50;2.30;;;22.50;99.90;;;;;;4988150;28;20081;-56
2023/07/16 08:54:22;;;;;;;3.17;2.33;;;22.50;99.90;;;;;;4996231;28;20092;-55
2023/07/16 08:56:48;;;;;;;2.60;1.55;;;22.40;99.90;;;;;;5001321;28;20018;-56
2023/07/16 08:59:17;;;;;;;3.20;2.00;;;22.30;99.90;;;;;;5005599;28;20021;-62
2023/07/16 09:01:43;;;;;;;4.80;2.10;;;22.10;99.90;;;;;;4995953;28;20386;-57
2023/07/16 09:04:09;;;;;;;8.48;2.83;;;22.00;99.90;;;;;;4984194;28;20037;-57
2023/07/16 09:06:34;;;;;;;3.25;2.33;;;21.80;99.90;;;;;;5004915;28;20022;-63
2023/07/16 09:09:00;;;;;;;4.32;2.45;;;21.40;99.90;;;;;;4975500;28;20512;-62
2023/07/16 09:11:27;;;;;;;4.75;2.30;;;21.10;99.90;;;;;;4987332;28;20022;-62
2023/07/16 09:13:52;;;;;;;6.78;2.28;;;20.80;99.90;;;;;;5004521;28;20025;-64
2023/07/16 09:16:18;;;;;;;5.57;2.90;;;20.60;99.90;;;;;;5008210;28;20365;-59
2023/07/16 09:18:45;;;;;;;7.93;3.53;;;20.50;99.90;;;;;;5002160;28;20129;-60
2023/07/16 09:21:10;;;;;;;4.22;3.15;;;20.40;99.90;;;;;;5005541;28;20014;-62
2023/07/16 09:23:36;;;;;;;5.75;3.45;;;20.40;99.90;;;;;;4999605;28;20030;-62
2023/07/16 09:26:05;;;;;;;4.80;3.55;;;20.50;99.90;;;;;;5000433;28;20026;-60
2023/07/16 09:28:32;;;;;;;6.25;3.17;;;20.70;99.90;;;;;;5003618;28;20018;-60
2023/07/16 09:31:05;;;;;;;6.72;4.03;;;20.90;99.90;;;;;;5003829;28;20562;-59
2023/07/16 09:33:31;;;;;;;7.70;4.00;;;21.10;99.90;;;;;;4988784;28;20039;-60
2023/07/16 09:35:57;;;;;;;4.95;3.38;;;21.10;99.90;;;;;;5005905;28;20021;-59
2023/07/16 09:38:24;;;;;;;4.90;3.80;;;21.10;99.90;;;;;;4990595;28;20098;-60
2023/07/16 09:40:51;;;;;;;3.67;3.30;;;21.00;99.90;;;;;;4976892;28;20030;-61
2023/07/16 09:43:17;;;;;;;4.53;3.88;;;21.00;99.90;;;;;;4998015;28;20476;-60
2023/07/16 09:45:42;;;;;;;5.47;3.63;;;21.10;99.90;;;;;;5006170;28;20084;-58
2023/07/16 09:48:09;;;;;;;3.28;2.50;;;21.30;99.90;;;;;;5003554;28;20492;-60
2023/07/16 09:50:35;;;;;;;3.25;2.25;;;21.30;99.90;;;;;;4986184;28;20118;-56
2023/07/16 09:53:03;;;;;;;2.50;2.30;;;21.30;99.90;;;;;;4985939;28;20121;-56
2023/07/16 09:55:34;;;;;;;2.80;2.20;;;21.30;99.90;;;;;;4988903;28;20022;-56
2023/07/16 09:58:01;;;;;;;3.03;2.38;;;21.40;99.90;;;;;;4993053;28;20052;-62
2023/07/16 10:00:28;;;;;;;2.53;2.13;;;21.50;99.90;;;;;;4977400;28;20461;-58
2023/07/16 10:02:55;;;;;;;5.10;2.58;;;21.60;99.90;;;;;;4999361;28;20042;-60
2023/07/16 10:05:27;;;;;;;2.92;2.28;;;21.70;99.90;;;;;;5007633;28;20080;-57
2023/07/16 10:07:59;;;;;;;6.63;2.63;;;21.70;99.90;;;;;;4992888;28;20626;-59
2023/07/16 10:10:45;;;;;;;4.57;2.38;;;21.50;99.90;;;;;;5005065;28;20026;-55
2023/07/16 10:13:13;;;;;;;4.32;2.90;;;21.40;99.90;;;;;;4995931;28;20529;-57
2023/07/16 10:15:39;;;;;;;4.40;3.53;;;21.20;99.90;;;;;;5002669;28;20503;-62
2023/07/16 10:18:06;;;;;;;4.97;3.05;;;21.30;99.90;;;;;;4999902;28;20671;-55
2023/07/16 10:20:34;;;;;;;4.63;3.20;;;21.40;99.90;;;;;;5005597;28;20018;-60
2023/07/16 10:23:18;;;;;;;4.35;3.13;;;21.70;99.90;;;;;;5003246;28;20026;-57
2023/07/16 10:26:06;;;;;;;4.57;2.88;;;21.80;99.90;;;;;;5001870;28;20132;-58
2023/07/16 10:28:33;;;;;;;4.95;2.95;;;21.90;99.90;;;;;;4999672;28;20347;-57
2023/07/16 10:30:59;;;;;;;7.38;3.95;;;21.90;99.90;;;;;;4994504;28;20064;-60
2023/07/16 10:33:25;;;;;;;5.93;3.33;;;21.90;99.90;;;;;;4994404;28;20109;-58
2023/07/16 10:35:50;;;;;;;5.40;2.53;;;22.00;99.90;;;;;;5004759;28;20058;-57
2023/07/16 10:38:16;;;;;;;3.85;2.70;;;22.00;99.90;;;;;;5007934;28;20080;-58
2023/07/16 10:40:43;;;;;;;5.22;2.95;;;22.10;99.90;;;;;;5003467;28;20019;-59
2023/07/16 10:43:08;;;;;;;3.97;2.67;;;22.10;99.90;;;;;;5001896;28;20072;-59
2023/07/16 10:45:34;;;;;;;4.20;2.35;;;22.10;99.90;;;;;;4997901;28;20058;-57
2023/07/16 10:47:59;;;;;;;3.50;2.75;;;22.20;99.90;;;;;;4992797;28;20113;-58
2023/07/16 10:50:25;;;;;;;5.38;2.42;;;22.30;99.90;;;;;;4989074;28;20019;-60
2023/07/16 10:52:56;;;;;;;4.15;2.78;;;22.30;99.90;;;;;;4973991;28;20030;-62
2023/07/16 10:55:22;;;;;;;3.78;2.78;;;22.30;99.90;;;;;;4995477;28;20060;-58
2023/07/16 10:57:49;;;;;;;4.30;2.55;;;22.30;99.90;;;;;;5000442;28;20022;-58
2023/07/16 11:00:16;;;;;;;5.30;2.65;;;22.30;99.90;;;;;;5001577;28;20025;-56
2023/07/16 11:02:43;;;;;;;5.15;2.92;;;22.30;99.50;;;;;;5003409;28;20044;-57
2023/07/16 11:05:13;;;;;;;4.68;2.20;;;22.30;99.90;;;;;;4991258;28;20528;-58
2023/07/16 11:07:44;;;;;;;5.22;3.10;;;22.40;99.90;;;;;;5002368;28;20113;-57
2023/07/16 11:10:10;;;;;;;4.28;2.50;;;22.60;99.90;;;;;;5002914;28;20022;-61
2023/07/16 11:12:36;;;;;;;3.15;2.50;;;22.70;99.90;;;;;;5004236;28;20026;-59
2023/07/16 11:15:02;;;;;;;4.35;2.50;;;22.60;99.90;;;;;;5000375;28;20025;-57
2023/07/16 11:17:28;;;;;;;3.38;2.35;;;22.60;99.90;;;;;;5006030;28;20387;-64
2023/07/16 11:19:54;;;;;;;4.22;2.25;;;22.60;99.10;;;;;;5003321;28;20057;-63
2023/07/16 11:22:27;;;;;;;3.35;2.40;;;22.50;99.10;;;;;;4995932;28;20034;-59
2023/07/16 11:24:53;;;;;;;9.00;2.80;;;22.50;99.20;;;;;;4983226;28;20019;-60
2023/07/16 11:27:25;;;;;;;3.38;2.17;;;22.50;99.90;;;;;;5003351;28;20531;-60
2023/07/16 11:29:56;;;;;;;4.35;2.70;;;22.70;99.50;;;;;;4995767;28;20030;-57
2023/07/16 11:32:29;;;;;;;3.50;3.00;;;22.80;99.70;;;;;;4985546;28;20177;-57
2023/07/16 11:34:55;;;;;;;9.43;2.80;;;22.80;98.80;;;;;;4978201;28;20022;-62
2023/07/16 11:37:21;;;;;;;4.00;2.35;;;22.70;99.30;;;;;;5005198;28;20030;-60
2023/07/16 11:39:48;;;;;;;4.85;3.20;;;22.60;99.20;;;;;;4998468;28;20056;-58
2023/07/16 11:42:14;;;;;;;3.42;2.55;;;22.70;98.90;;;;;;4994051;28;20045;-56
2023/07/16 11:44:40;;;;;;;5.57;2.60;;;22.70;99.50;;;;;;4997226;28;20033;-56
2023/07/16 11:47:06;;;;;;;5.95;3.08;;;22.70;98.30;;;;;;5001129;28;20034;-58
2023/07/16 11:49:31;;;;;;;7.00;3.15;;;22.70;99.10;;;;;;4998289;28;20080;-57
2023/07/16 11:51:59;;;;;;;5.72;2.80;;;22.80;99.50;;;;;;5001621;28;20428;-61
2023/07/16 11:54:24;;;;;;;5.57;2.72;;;23.00;99.90;;;;;;4990846;28;20018;-58
2023/07/16 11:56:50;;;;;;;4.28;2.65;;;23.10;98.70;;;;;;4987444;28;20030;-58
2023/07/16 11:59:20;;;;;;;3.55;2.55;;;23.20;99.10;;;;;;4998931;28;20116;-56
2023/07/16 12:01:47;;;;;;;4.40;2.65;;;23.20;99.50;;;;;;5001476;28;20163;-56
2023/07/16 12:04:12;;;;;;;4.40;3.00;;;23.20;98.80;;;;;;5004097;28;20030;-59
2023/07/16 12:06:38;;;;;;;4.88;2.88;;;23.30;98.50;;;;;;4998602;28;20022;-57
2023/07/16 12:09:03;;;;;;;6.25;2.55;;;23.30;98.90;;;;;;4993356;28;20030;-64
2023/07/16 12:11:29;;;;;;;4.90;2.10;;;23.40;97.20;;;;;;5001392;28;20428;-59
2023/07/16 12:13:55;;;;;;;3.90;2.10;;;23.40;97.10;;;;;;4987201;28;20026;-57
2023/07/16 12:16:21;;;;;;;4.60;2.33;;;23.30;97.30;;;;;;5001692;28;20220;-58
2023/07/16 12:18:46;;;;;;;2.63;2.10;;;23.20;97.70;;;;;;5002113;28;20362;-60
2023/07/16 12:21:12;;;;;;;7.07;2.83;;;23.30;98.70;;;;;;5004345;28;20030;-61
2023/07/16 12:23:37;;;;;;;2.83;2.58;;;23.40;99.00;;;;;;5001926;28;20026;-57
2023/07/16 12:26:03;;;;;;;4.60;2.30;;;23.40;97.90;;;;;;4998086;28;20044;-56
2023/07/16 12:28:28;;;;;;;3.92;2.40;;;23.30;98.20;;;;;;4998570;28;20028;-57
2023/07/16 12:30:54;;;;;;;8.10;4.85;;;23.30;99.00;;;;;;4988501;28;20037;-58
2023/07/16 12:33:20;;;;;;;6.25;5.05;;;23.40;99.50;;;;;;5004026;28;20109;-55
2023/07/16 12:35:47;;;;;;;9.98;7.57;;;23.40;97.60;;;;;;4992489;28;20069;-56
2023/07/16 12:38:12;;;;;;;7.30;4.88;;;23.50;97.90;;;;;;5007139;28;20050;-57
2023/07/16 12:40:40;;;;;;;4.88;2.70;;;23.60;98.20;;;;;;5000968;28;20053;-59
2023/07/16 12:43:06;;;;;;;6.15;3.83;;;23.60;97.30;;;;;;4982080;28;20456;-55